createdAt,value
2022-12-29T00:01:56.568Z,99517.13
2022-12-29T00:04:23.170Z,99526.28
2022-12-29T00:06:49.642Z,99521.44
2022-12-29T00:09:17.418Z,99524.13
2022-12-29T00:11:44.094Z,99528.22
2022-12-29T00:14:30.286Z,99532.91
2022-12-29T00:16:57.337Z,99516.28
2022-12-29T00:19:42.899Z,99518.56
2022-12-29T00:22:32.768Z,99512.03
2022-12-29T00:25:02.871Z,99513.38
2022-12-29T00:27:49.360Z,99512.41
2022-12-29T00:30:38.452Z,99517.13
2022-12-29T00:33:30.502Z,99513.50
2022-12-29T00:36:20.140Z,99517.44
2022-12-29T00:39:15.260Z,99508.09
2022-12-29T00:42:00.583Z,99505.78
2022-12-29T00:44:27.024Z,99509.91
2022-12-29T00:46:53.566Z,99508.66
2022-12-29T00:49:31.912Z,99510.47
2022-12-29T00:52:08.893Z,99503.13
2022-12-29T00:54:37.585Z,99508.88
2022-12-29T00:57:06.429Z,99503.84
2022-12-29T00:59:36.224Z,99509.41
2022-12-29T01:02:02.847Z,99511.25
2022-12-29T01:04:29.370Z,99516.50
2022-12-29T01:06:55.847Z,99508.44
2022-12-29T01:09:41.226Z,99511.03
2022-12-29T01:12:09.095Z,99510.63
2022-12-29T01:14:35.737Z,99510.50
2022-12-29T01:17:02.192Z,99513.81
2022-12-29T01:19:28.637Z,99501.91
2022-12-29T01:21:55.096Z,99503.50
2022-12-29T01:24:22.431Z,99488.38
2022-12-29T01:26:49.507Z,99500.38
2022-12-29T01:29:16.350Z,99497.69
2022-12-29T01:31:43.800Z,99500.47
2022-12-29T01:34:10.318Z,99499.69
2022-12-29T01:36:36.870Z,99491.44
2022-12-29T01:39:03.440Z,99500.81
2022-12-29T01:41:30.075Z,99482.16
2022-12-29T01:44:01.997Z,99479.97
2022-12-29T01:46:39.150Z,99471.63
2022-12-29T01:49:22.888Z,99471.44
2022-12-29T01:51:59.458Z,99471.44
2022-12-29T01:54:41.216Z,99463.41
2022-12-29T01:57:13.608Z,99467.81
2022-12-29T01:59:46.869Z,99459.19
2022-12-29T02:02:13.499Z,99463.47
2022-12-29T02:04:46.758Z,99455.66
2022-12-29T02:07:19.452Z,99451.13
2022-12-29T02:09:50.203Z,99437.28
2022-12-29T02:12:19.119Z,99436.09
2022-12-29T02:14:46.356Z,99430.00
2022-12-29T02:17:22.785Z,99423.44
2022-12-29T02:20:04.509Z,99424.25
2022-12-29T02:22:43.095Z,99413.63
2022-12-29T02:25:38.043Z,99410.72
2022-12-29T02:28:10.572Z,99410.78
2022-12-29T02:30:55.760Z,99400.84
2022-12-29T02:33:38.861Z,99405.66
2022-12-29T02:36:20.963Z,99401.44
2022-12-29T02:39:06.235Z,99399.19
2022-12-29T02:41:59.388Z,99389.22
2022-12-29T02:44:47.327Z,99380.41
2022-12-29T02:47:29.088Z,99391.75
2022-12-29T02:50:20.264Z,99393.84
2022-12-29T02:52:58.201Z,99391.69
2022-12-29T02:55:24.701Z,99395.03
2022-12-29T02:58:17.968Z,99401.34
2022-12-29T03:01:03.303Z,99397.91
2022-12-29T03:03:40.411Z,99397.25
2022-12-29T03:06:28.427Z,99400.78
2022-12-29T03:09:18.873Z,99394.13
2022-12-29T03:12:15.858Z,99384.34
2022-12-29T03:15:25.232Z,99390.16
2022-12-29T03:18:03.412Z,99400.78
2022-12-29T03:20:39.750Z,99385.63
2022-12-29T03:23:07.761Z,99395.19
2022-12-29T03:25:41.166Z,99385.72
2022-12-29T03:28:11.797Z,99388.00
2022-12-29T03:30:40.694Z,99377.84
2022-12-29T03:33:13.256Z,99375.09
2022-12-29T03:35:44.565Z,99373.09
2022-12-29T03:38:24.234Z,99367.16
2022-12-29T03:40:57.747Z,99366.69
2022-12-29T03:43:24.499Z,99369.03
2022-12-29T03:45:51.045Z,99356.28
2022-12-29T03:48:17.573Z,99349.66
2022-12-29T03:50:44.719Z,99340.97
2022-12-29T03:53:11.314Z,99353.94
2022-12-29T03:55:37.755Z,99344.34
2022-12-29T03:58:04.172Z,99345.31
2022-12-29T04:00:30.602Z,99340.31
2022-12-29T04:02:57.161Z,99329.44
2022-12-29T04:05:23.787Z,99340.84
2022-12-29T04:07:50.226Z,99340.13
2022-12-29T04:10:16.708Z,99327.66
2022-12-29T04:12:43.188Z,99329.31
2022-12-29T04:15:10.643Z,99342.69
2022-12-29T04:17:37.106Z,99362.75
2022-12-29T04:20:22.530Z,99340.75
2022-12-29T04:22:48.997Z,99342.97
2022-12-29T04:25:15.517Z,99338.03
2022-12-29T04:27:41.899Z,99326.06
2022-12-29T04:30:09.132Z,99332.66
2022-12-29T04:32:35.584Z,99318.81
2022-12-29T04:35:02.004Z,99328.56
2022-12-29T04:37:28.417Z,99322.16
2022-12-29T04:39:54.841Z,99323.59
2022-12-29T04:42:21.358Z,99321.63
2022-12-29T04:44:47.834Z,99325.00
2022-12-29T04:47:14.323Z,99317.53
2022-12-29T04:49:40.806Z,99336.22
2022-12-29T04:52:09.256Z,99330.53
2022-12-29T04:54:35.794Z,99326.44
2022-12-29T04:57:02.238Z,99327.66
2022-12-29T04:59:28.716Z,99319.47
2022-12-29T05:01:55.241Z,99326.38
2022-12-29T05:04:21.720Z,99323.97
2022-12-29T05:06:48.759Z,99330.31
2022-12-29T05:09:15.194Z,99324.16
2022-12-29T05:11:41.690Z,99322.88
2022-12-29T05:14:08.119Z,99319.59
2022-12-29T05:16:34.544Z,99306.47
2022-12-29T05:19:01.052Z,99313.41
2022-12-29T05:21:27.553Z,99315.28
2022-12-29T05:23:54.643Z,99323.81
2022-12-29T05:26:21.122Z,99312.13
2022-12-29T05:28:47.537Z,99322.34
2022-12-29T05:31:14.176Z,99325.63
2022-12-29T05:33:40.661Z,99317.56
2022-12-29T05:36:09.399Z,99312.09
2022-12-29T05:38:35.954Z,99315.34
2022-12-29T05:41:02.400Z,99309.16
2022-12-29T05:43:28.868Z,99311.63
2022-12-29T05:45:55.969Z,99319.19
2022-12-29T05:48:22.461Z,99318.69
2022-12-29T05:50:49.814Z,99314.84
2022-12-29T05:53:16.341Z,99313.66
2022-12-29T05:55:48.547Z,99311.09
2022-12-29T05:58:16.279Z,99319.78
2022-12-29T06:00:44.079Z,99309.16
2022-12-29T06:03:10.640Z,99308.78
2022-12-29T06:05:37.523Z,99325.75
2022-12-29T06:08:04.272Z,99315.44
2022-12-29T06:10:30.773Z,99310.28
2022-12-29T06:12:57.228Z,99306.56
2022-12-29T06:15:23.656Z,99308.13
2022-12-29T06:17:50.058Z,99306.56
2022-12-29T06:20:16.974Z,99312.13
2022-12-29T06:22:43.945Z,99305.88
2022-12-29T06:25:10.529Z,99317.56
2022-12-29T06:27:36.961Z,99318.00
2022-12-29T06:30:04.297Z,99311.50
2022-12-29T06:32:30.797Z,99310.81
2022-12-29T06:34:57.224Z,99303.00
2022-12-29T06:37:23.653Z,99299.78
2022-12-29T06:39:50.038Z,99302.34
2022-12-29T06:42:16.561Z,99295.19
2022-12-29T06:44:42.978Z,99295.59
2022-12-29T06:47:09.422Z,99287.78
2022-12-29T06:49:35.884Z,99293.72
2022-12-29T06:52:09.051Z,99281.84
2022-12-29T06:54:39.085Z,99284.28
2022-12-29T06:57:05.510Z,99293.91
2022-12-29T06:59:31.943Z,99295.78
2022-12-29T07:01:58.514Z,99299.03
2022-12-29T07:04:25.122Z,99296.22
2022-12-29T07:06:51.612Z,99301.22
2022-12-29T07:09:18.097Z,99295.00
2022-12-29T07:11:44.553Z,99277.88
2022-12-29T07:14:12.290Z,99286.97
2022-12-29T07:16:39.326Z,99273.53
2022-12-29T07:19:06.010Z,99278.94
2022-12-29T07:21:32.522Z,99279.56
2022-12-29T07:23:58.918Z,99286.16
2022-12-29T07:26:25.359Z,99295.22
2022-12-29T07:28:52.033Z,99302.38
2022-12-29T07:31:21.712Z,99313.88
2022-12-29T07:33:48.734Z,99293.91
2022-12-29T07:36:15.970Z,99296.25
2022-12-29T07:38:43.359Z,99280.13
2022-12-29T07:41:10.085Z,99287.69
2022-12-29T07:43:36.734Z,99288.22
2022-12-29T07:46:03.281Z,99298.13
2022-12-29T07:48:29.777Z,99298.56
2022-12-29T07:50:56.243Z,99297.91
2022-12-29T07:53:22.687Z,99295.09
2022-12-29T07:55:49.124Z,99298.69
2022-12-29T07:58:15.549Z,99309.81
2022-12-29T08:00:41.961Z,99304.38
2022-12-29T08:03:08.391Z,99316.34
2022-12-29T08:05:35.414Z,99326.63
2022-12-29T08:08:01.890Z,99318.00
2022-12-29T08:10:28.462Z,99324.16
2022-12-29T08:12:55.062Z,99320.16
2022-12-29T08:15:24.414Z,99344.81
2022-12-29T08:17:53.626Z,99324.63
2022-12-29T08:20:20.036Z,99339.91
2022-12-29T08:22:46.486Z,99347.25
2022-12-29T08:25:12.954Z,99347.13
2022-12-29T08:27:39.542Z,99348.84
2022-12-29T08:30:06.629Z,99342.03
2022-12-29T08:32:33.136Z,99358.44
2022-12-29T08:34:59.545Z,99353.94
2022-12-29T08:37:30.912Z,99361.75
2022-12-29T08:39:58.734Z,99362.38
2022-12-29T08:42:29.816Z,99364.84
2022-12-29T08:44:56.236Z,99365.34
2022-12-29T08:47:22.638Z,99359.97
2022-12-29T08:49:49.090Z,99354.50
2022-12-29T08:52:15.518Z,99353.66
2022-12-29T08:54:41.931Z,99352.03
2022-12-29T08:57:08.441Z,99360.22
2022-12-29T08:59:36.008Z,99348.59
2022-12-29T09:02:02.907Z,99345.97
2022-12-29T09:04:29.605Z,99334.63
2022-12-29T09:06:56.220Z,99330.59
2022-12-29T09:09:22.729Z,99349.44
2022-12-29T09:11:49.159Z,99355.03
2022-12-29T09:14:15.626Z,99347.19
2022-12-29T09:17:01.048Z,99352.34
2022-12-29T09:19:27.534Z,99359.81
2022-12-29T09:21:53.987Z,99351.44
2022-12-29T09:24:20.388Z,99347.75
2022-12-29T09:26:47.169Z,99344.59
2022-12-29T09:29:13.733Z,99350.13
2022-12-29T09:31:40.290Z,99356.56
2022-12-29T09:34:06.811Z,99370.97
2022-12-29T09:36:33.198Z,99370.31
2022-12-29T09:38:59.631Z,99387.22
2022-12-29T09:41:36.684Z,99402.75
2022-12-29T09:44:11.854Z,99410.34
2022-12-29T09:46:42.532Z,99405.22
2022-12-29T09:49:42.030Z,99400.47
2022-12-29T09:52:16.377Z,99405.72
2022-12-29T09:55:02.965Z,99413.25
2022-12-29T09:57:37.119Z,99383.31
2022-12-29T10:00:12.317Z,99405.88
2022-12-29T10:02:54.405Z,99406.09
2022-12-29T10:05:30.127Z,99401.19
2022-12-29T10:08:05.460Z,99403.81
2022-12-29T10:11:13.232Z,99390.34
2022-12-29T10:14:16.033Z,99406.25
2022-12-29T10:16:54.941Z,99403.97
2022-12-29T10:19:37.842Z,99401.63
2022-12-29T10:22:16.306Z,99411.22
2022-12-29T10:24:45.342Z,99401.16
2022-12-29T10:27:14.635Z,99399.44
2022-12-29T10:30:03.522Z,99406.59
2022-12-29T10:32:44.112Z,99406.75
2022-12-29T10:35:30.750Z,99412.53
2022-12-29T10:38:19.502Z,99409.22
2022-12-29T10:41:04.337Z,99407.00
2022-12-29T10:43:36.569Z,99417.81
2022-12-29T10:46:12.802Z,99411.66
2022-12-29T10:48:39.749Z,99401.78
2022-12-29T10:51:47.479Z,99405.84
2022-12-29T10:54:19.197Z,99411.91
2022-12-29T10:56:53.262Z,99416.53
2022-12-29T10:59:25.567Z,99401.59
2022-12-29T11:02:13.288Z,99411.66
2022-12-29T11:05:03.053Z,99411.41
2022-12-29T11:07:31.053Z,99407.38
2022-12-29T11:10:20.959Z,99394.41
2022-12-29T11:13:19.134Z,99389.38
2022-12-29T11:15:49.002Z,99390.09
2022-12-29T11:18:23.242Z,99388.53
2022-12-29T11:21:01.626Z,99394.94
2022-12-29T11:23:40.143Z,99397.16
2022-12-29T11:26:21.078Z,99395.22
2022-12-29T11:29:04.795Z,99393.25
2022-12-29T11:31:31.265Z,99406.69
2022-12-29T11:33:57.728Z,99404.81
2022-12-29T11:36:25.495Z,99387.13
2022-12-29T11:38:54.454Z,99395.91
2022-12-29T11:41:24.716Z,99408.38
2022-12-29T11:43:52.432Z,99396.72
2022-12-29T11:46:34.630Z,99404.63
2022-12-29T11:49:03.031Z,99402.06
2022-12-29T11:51:35.542Z,99421.13
2022-12-29T11:54:05.098Z,99419.03
2022-12-29T11:56:43.284Z,99418.56
2022-12-29T11:59:27.820Z,99415.78
2022-12-29T12:01:55.495Z,99433.19
2022-12-29T12:04:27.308Z,99443.63
2022-12-29T12:07:09.586Z,99443.34
2022-12-29T12:09:42.037Z,99437.97
2022-12-29T12:12:15.068Z,99444.22
2022-12-29T12:14:57.501Z,99450.00
2022-12-29T12:17:52.601Z,99464.97
2022-12-29T12:20:44.600Z,99459.47
2022-12-29T12:23:47.984Z,99445.13
2022-12-29T12:26:29.043Z,99444.22
2022-12-29T12:29:02.105Z,99455.72
2022-12-29T12:31:50.082Z,99440.84
2022-12-29T12:34:28.950Z,99438.84
2022-12-29T12:37:20.043Z,99437.91
2022-12-29T12:40:23.950Z,99433.97
2022-12-29T12:42:56.485Z,99434.59
2022-12-29T12:45:29.187Z,99442.31
2022-12-29T12:48:40.363Z,99431.28
2022-12-29T12:51:12.911Z,99445.84
2022-12-29T12:53:58.604Z,99452.19
2022-12-29T12:56:24.966Z,99440.16
2022-12-29T12:59:07.234Z,99443.63
2022-12-29T13:01:54.486Z,99449.41
2022-12-29T13:04:37.664Z,99442.97
2022-12-29T13:07:28.262Z,99446.38
2022-12-29T13:10:17.943Z,99455.25
2022-12-29T13:13:03.090Z,99456.00
2022-12-29T13:15:41.721Z,99457.38
2022-12-29T13:18:19.902Z,99456.81
2022-12-29T13:21:14.652Z,99464.38
2022-12-29T13:24:21.201Z,99459.38
2022-12-29T13:26:55.727Z,99459.38
2022-12-29T13:29:37.003Z,99472.81
2022-12-29T13:32:35.959Z,99467.88
2022-12-29T13:35:08.301Z,99479.94
2022-12-29T13:37:44.844Z,99473.91
2022-12-29T13:40:16.955Z,99481.06
2022-12-29T13:42:44.432Z,99483.59
2022-12-29T13:45:16.973Z,99492.97
2022-12-29T13:47:49.895Z,99482.22
2022-12-29T13:50:19.974Z,99481.75
2022-12-29T13:53:28.347Z,99494.97
2022-12-29T13:56:16.035Z,99490.69
2022-12-29T13:58:45.150Z,99501.25
2022-12-29T14:01:14.707Z,99508.81
2022-12-29T14:03:51.971Z,99508.00
2022-12-29T14:06:26.286Z,99514.81
2022-12-29T14:09:04.697Z,99518.59
2022-12-29T14:11:40.218Z,99524.72
2022-12-29T14:14:21.106Z,99525.34
2022-12-29T14:16:48.058Z,99531.56
2022-12-29T14:19:24.176Z,99535.06
2022-12-29T14:22:03.187Z,99541.19
2022-12-29T14:24:32.418Z,99538.19
2022-12-29T14:26:58.871Z,99552.88
2022-12-29T14:29:25.263Z,99549.81
2022-12-29T14:31:53.699Z,99561.59
2022-12-29T14:34:23.009Z,99562.53
2022-12-29T14:37:02.465Z,99564.78
2022-12-29T14:39:43.483Z,99559.63
2022-12-29T14:42:09.827Z,99568.78
2022-12-29T14:44:53.311Z,99568.34
2022-12-29T14:47:50.575Z,99572.00
2022-12-29T14:50:20.628Z,99574.25
2022-12-29T14:53:00.091Z,99574.97
2022-12-29T14:55:44.479Z,99576.44
2022-12-29T14:58:22.015Z,99579.66
2022-12-29T15:00:49.001Z,99572.84
2022-12-29T15:03:22.321Z,99571.38
2022-12-29T15:05:56.799Z,99580.06
2022-12-29T15:08:33.076Z,99586.97
2022-12-29T15:11:05.637Z,99585.91
2022-12-29T15:13:38.320Z,99586.59
2022-12-29T15:16:05.586Z,99586.00
2022-12-29T15:18:34.117Z,99596.34
2022-12-29T15:21:06.312Z,99589.50
2022-12-29T15:23:35.389Z,99601.81
2022-12-29T15:26:06.142Z,99601.53
2022-12-29T15:28:42.732Z,99603.63
2022-12-29T15:31:16.699Z,99612.00
2022-12-29T15:33:48.175Z,99612.03
2022-12-29T15:36:19.857Z,99624.22
2022-12-29T15:38:47.452Z,99614.56
2022-12-29T15:41:21.955Z,99624.38
2022-12-29T15:43:58.169Z,99628.56
2022-12-29T15:46:24.929Z,99628.84
2022-12-29T15:48:51.492Z,99636.41
2022-12-29T15:51:20.693Z,99631.41
2022-12-29T15:53:52.042Z,99637.06
2022-12-29T15:56:19.233Z,99631.28
2022-12-29T15:58:51.755Z,99638.94
2022-12-29T16:01:24.637Z,99643.56
2022-12-29T16:03:53.068Z,99654.28
2022-12-29T16:06:30.403Z,99651.00
2022-12-29T16:09:03.459Z,99655.63
2022-12-29T16:11:37.981Z,99651.38
2022-12-29T16:14:10.844Z,99657.34
2022-12-29T16:16:40.644Z,99663.13
2022-12-29T16:19:33.628Z,99666.25
2022-12-29T16:22:03.342Z,99668.09
2022-12-29T16:24:33.918Z,99671.75
2022-12-29T16:27:09.249Z,99672.59
2022-12-29T16:29:36.309Z,99680.06
2022-12-29T16:32:06.329Z,99670.53
2022-12-29T16:34:43.885Z,99680.31
2022-12-29T16:37:33.403Z,99686.44
2022-12-29T16:40:18.436Z,99696.78
2022-12-29T16:42:51.014Z,99708.31
2022-12-29T16:45:21.501Z,99701.78
2022-12-29T16:48:09.658Z,99702.03
2022-12-29T16:50:38.765Z,99702.94
2022-12-29T16:53:08.067Z,99699.56
2022-12-29T16:55:34.557Z,99701.66
2022-12-29T16:58:01.370Z,99693.84
2022-12-29T17:00:33.338Z,99692.25
2022-12-29T17:03:01.654Z,99686.59
2022-12-29T17:05:28.409Z,99688.59
2022-12-29T17:07:55.880Z,99699.41
2022-12-29T17:10:42.259Z,99694.91
2022-12-29T17:13:09.139Z,99703.59
2022-12-29T17:15:35.762Z,99705.44
2022-12-29T17:18:02.305Z,99709.75
2022-12-29T17:20:30.710Z,99709.28
2022-12-29T17:22:58.830Z,99717.72
2022-12-29T17:25:37.303Z,99711.31
2022-12-29T17:28:33.389Z,99705.59
2022-12-29T17:31:02.978Z,99711.72
2022-12-29T17:33:35.469Z,99708.56
2022-12-29T17:36:01.933Z,99707.13
2022-12-29T17:38:35.866Z,99713.53
2022-12-29T17:41:02.360Z,99714.59
2022-12-29T17:43:34.771Z,99714.97
2022-12-29T17:46:06.528Z,99709.16
2022-12-29T17:48:33.912Z,99714.50
2022-12-29T17:51:00.568Z,99711.69
2022-12-29T17:53:29.868Z,99700.97
2022-12-29T17:55:56.573Z,99715.09
2022-12-29T17:58:25.686Z,99717.63
2022-12-29T18:00:55.785Z,99716.78
2022-12-29T18:03:42.582Z,99721.97
2022-12-29T18:06:12.161Z,99722.25
2022-12-29T18:08:40.396Z,99727.59
2022-12-29T18:11:21.102Z,99726.72
2022-12-29T18:13:47.529Z,99718.13
2022-12-29T18:16:14.712Z,99713.56
2022-12-29T18:18:41.301Z,99713.03
2022-12-29T18:21:15.930Z,99729.97
2022-12-29T18:23:42.424Z,99726.03
2022-12-29T18:26:11.843Z,99723.56
2022-12-29T18:28:38.292Z,99715.63
2022-12-29T18:31:17.005Z,99706.50
2022-12-29T18:33:43.505Z,99710.28
2022-12-29T18:36:12.203Z,99719.34
2022-12-29T18:38:38.668Z,99722.53
2022-12-29T18:41:05.213Z,99722.59
2022-12-29T18:43:31.630Z,99726.69
2022-12-29T18:45:58.138Z,99723.53
2022-12-29T18:48:24.523Z,99728.84
2022-12-29T18:50:51.839Z,99739.72
2022-12-29T18:53:21.215Z,99737.44
2022-12-29T18:55:47.714Z,99734.78
2022-12-29T18:58:14.568Z,99735.59
2022-12-29T19:00:41.344Z,99736.47
2022-12-29T19:03:07.921Z,99737.13
2022-12-29T19:05:39.415Z,99743.22
2022-12-29T19:08:07.148Z,99742.66
2022-12-29T19:10:34.261Z,99739.69
2022-12-29T19:13:01.115Z,99745.75
2022-12-29T19:15:35.947Z,99751.81
2022-12-29T19:20:52.164Z,99751.03
2022-12-29T19:23:21.146Z,99754.81
2022-12-29T19:25:49.210Z,99754.63
2022-12-29T19:28:21.552Z,99758.41
2022-12-29T19:30:52.137Z,99756.16
2022-12-29T19:33:23.396Z,99752.75
2022-12-29T19:35:50.798Z,99755.38
2022-12-29T19:38:17.830Z,99754.50
2022-12-29T19:40:48.127Z,99760.00
2022-12-29T19:43:15.227Z,99754.56
2022-12-29T19:45:43.621Z,99760.50
2022-12-29T19:48:15.787Z,99758.81
2022-12-29T19:50:43.322Z,99754.69
2022-12-29T19:53:09.832Z,99757.41
2022-12-29T19:55:36.266Z,99758.59
2022-12-29T19:58:02.796Z,99753.72
2022-12-29T20:00:29.304Z,99759.66
2022-12-29T20:02:55.888Z,99758.16
2022-12-29T20:05:22.659Z,99751.81
2022-12-29T20:07:49.094Z,99772.69
2022-12-29T20:10:15.585Z,99758.25
2022-12-29T20:12:42.159Z,99762.63
2022-12-29T20:15:11.020Z,99766.03
2022-12-29T20:20:24.008Z,99787.28
2022-12-29T20:22:50.546Z,99786.94
2022-12-29T20:28:03.696Z,99804.53
2022-12-29T20:30:30.135Z,99802.03
2022-12-29T20:32:56.569Z,99800.53
2022-12-29T20:35:23.101Z,99804.53
2022-12-29T20:37:49.737Z,99796.06
2022-12-29T20:40:16.182Z,99803.44
2022-12-29T20:42:59.592Z,99809.94
2022-12-29T20:45:26.305Z,99825.28
2022-12-29T20:47:52.945Z,99836.59
2022-12-29T20:50:19.416Z,99842.25
2022-12-29T20:52:46.719Z,99838.47
2022-12-29T20:55:13.207Z,99857.19
2022-12-29T20:58:21.525Z,99847.97
2022-12-29T21:00:26.257Z,99874.31
2022-12-29T21:02:53.053Z,99857.75
2022-12-29T21:05:24.456Z,99873.03
2022-12-29T21:07:51.962Z,99877.28
2022-12-29T21:10:18.588Z,99875.56
2022-12-29T21:12:45.127Z,99878.78
2022-12-29T21:15:11.732Z,99892.13
2022-12-29T21:17:38.132Z,99868.69
2022-12-29T21:20:04.846Z,99875.16
2022-12-29T21:22:31.236Z,99884.91
2022-12-29T21:24:57.665Z,99882.78
2022-12-29T21:27:24.161Z,99879.69
2022-12-29T21:29:50.655Z,99882.16
2022-12-29T21:32:17.087Z,99897.00
2022-12-29T21:34:43.492Z,99883.19
2022-12-29T21:37:09.931Z,99888.63
2022-12-29T21:39:36.369Z,99890.41
2022-12-29T21:42:02.786Z,99894.44
2022-12-29T21:44:48.044Z,99900.59
2022-12-29T21:47:14.486Z,99900.47
2022-12-29T21:49:40.905Z,99905.03
2022-12-29T21:52:07.355Z,99914.50
2022-12-29T21:54:52.407Z,99911.53
2022-12-29T21:57:37.740Z,99914.38
2022-12-29T22:00:27.687Z,99908.25
2022-12-29T22:03:22.039Z,99915.59
2022-12-29T22:06:08.992Z,99922.91
2022-12-29T22:08:53.653Z,99924.69
2022-12-29T22:11:38.523Z,99924.28
2022-12-29T22:14:06.244Z,99917.91
2022-12-29T22:16:34.075Z,99923.03
2022-12-29T22:19:00.630Z,99926.88
2022-12-29T22:21:27.113Z,99935.78
2022-12-29T22:23:53.583Z,99930.81
2022-12-29T22:26:20.131Z,99935.56
2022-12-29T22:28:47.865Z,99951.03
2022-12-29T22:31:27.072Z,99950.69
2022-12-29T22:33:57.539Z,99954.00
2022-12-29T22:36:25.151Z,99944.59
2022-12-29T22:38:52.117Z,99953.94
2022-12-29T22:41:19.347Z,99968.44
2022-12-29T22:43:45.798Z,99960.06
2022-12-29T22:46:12.475Z,99967.94
2022-12-29T22:48:38.969Z,99954.97
2022-12-29T22:51:05.874Z,99970.38
2022-12-29T22:53:32.791Z,99968.72
2022-12-29T22:56:08.363Z,99975.25
2022-12-29T22:58:34.956Z,99969.94
2022-12-29T23:01:01.571Z,99963.03
2022-12-29T23:03:28.487Z,99973.94
2022-12-29T23:05:56.793Z,99962.28
2022-12-29T23:08:23.225Z,99964.81
2022-12-29T23:10:49.747Z,99963.00
2022-12-29T23:13:16.401Z,99965.38
2022-12-29T23:15:42.859Z,99965.38
2022-12-29T23:18:09.329Z,99973.84
2022-12-29T23:20:35.888Z,99984.81
2022-12-29T23:23:02.307Z,99989.22
2022-12-29T23:25:31.823Z,99994.41
2022-12-29T23:27:58.225Z,99994.84
2022-12-29T23:30:24.635Z,99993.16
2022-12-29T23:32:51.028Z,100000.97
2022-12-29T23:35:17.514Z,100002.88
2022-12-29T23:37:43.940Z,100007.97
2022-12-29T23:40:11.028Z,99995.81
2022-12-29T23:42:37.648Z,99989.16
2022-12-29T23:45:05.447Z,99983.78
2022-12-29T23:47:32.139Z,99990.09
2022-12-29T23:49:58.524Z,100003.66
2022-12-29T23:52:25.061Z,100002.16
2022-12-29T23:54:51.536Z,100017.63
2022-12-29T23:57:17.956Z,100019.16
2022-12-29T23:59:44.361Z,100026.16
